sensor_id;sensor_type;location;lat;lon;timestamp;pressure;altitude;pressure_sealevel;temperature;humidity
30110;BME280;14965;50.660;13.226;2022-10-16T00:01:42;94742.75;;;12.81;100.00
30110;BME280;14965;50.660;13.226;2022-10-16T00:04:09;94735.53;;;12.83;100.00
30110;BME280;14965;50.660;13.226;2022-10-16T00:06:34;94735.53;;;12.83;100.00
30110;BME280;14965;50.660;13.226;2022-10-16T00:09:01;94737.84;;;12.85;100.00
30110;BME280;14965;50.660;13.226;2022-10-16T00:11:30;94743.69;;;12.87;100.00
30110;BME280;14965;50.660;13.226;2022-10-16T00:13:59;94749.69;;;12.85;100.00
30110;BME280;14965;50.660;13.226;2022-10-16T00:16:28;94739.72;;;12.88;100.00
30110;BME280;14965;50.660;13.226;2022-10-16T00:18:54;94740.47;;;12.88;100.00
30110;BME280;14965;50.660;13.226;2022-10-16T00:21:24;94731.41;;;12.88;100.00
30110;BME280;14965;50.660;13.226;2022-10-16T00:23:51;94738.47;;;12.89;100.00
30110;BME280;14965;50.660;13.226;2022-10-16T00:26:18;94744.03;;;12.89;100.00
30110;BME280;14965;50.660;13.226;2022-10-16T00:28:46;94740.00;;;12.90;100.00
30110;BME280;14965;50.660;13.226;2022-10-16T00:31:12;94747.09;;;12.91;100.00
30110;BME280;14965;50.660;13.226;2022-10-16T00:33:40;94751.44;;;12.92;100.00
30110;BME280;14965;50.660;13.226;2022-10-16T00:36:10;94745.56;;;12.90;100.00
30110;BME280;14965;50.660;13.226;2022-10-16T00:38:36;94752.78;;;12.87;100.00
30110;BME280;14965;50.660;13.226;2022-10-16T00:41:03;94748.94;;;12.85;100.00
30110;BME280;14965;50.660;13.226;2022-10-16T00:43:37;94740.00;;;12.81;100.00
30110;BME280;14965;50.660;13.226;2022-10-16T00:46:09;94747.19;;;12.78;100.00
30110;BME280;14965;50.660;13.226;2022-10-16T00:48:36;94753.22;;;12.77;100.00
30110;BME280;14965;50.660;13.226;2022-10-16T00:51:05;94747.34;;;12.75;100.00
30110;BME280;14965;50.660;13.226;2022-10-16T00:53:33;94757.66;;;12.74;100.00
30110;BME280;14965;50.660;13.226;2022-10-16T00:55:59;94753.81;;;12.71;100.00
30110;BME280;14965;50.660;13.226;2022-10-16T00:58:25;94751.47;;;12.70;100.00
30110;BME280;14965;50.660;13.226;2022-10-16T01:00:51;94755.94;;;12.67;100.00
30110;BME280;14965;50.660;13.226;2022-10-16T01:03:28;94765.94;;;12.65;100.00
30110;BME280;14965;50.660;13.226;2022-10-16T01:06:09;94764.06;;;12.62;100.00
30110;BME280;14965;50.660;13.226;2022-10-16T01:08:48;94757.44;;;12.59;100.00
30110;BME280;14965;50.660;13.226;2022-10-16T01:11:22;94763.41;;;12.58;100.00
30110;BME280;14965;50.660;13.226;2022-10-16T01:13:55;94769.44;;;12.56;100.00
30110;BME280;14965;50.660;13.226;2022-10-16T01:16:34;94794.34;;;12.56;100.00
30110;BME280;14965;50.660;13.226;2022-10-16T01:19:12;94786.38;;;12.58;100.00
30110;BME280;14965;50.660;13.226;2022-10-16T01:21:44;94787.91;;;12.59;100.00
30110;BME280;14965;50.660;13.226;2022-10-16T01:24:25;94793.75;;;12.61;100.00
30110;BME280;14965;50.660;13.226;2022-10-16T01:27:20;94794.09;;;12.63;100.00
30110;BME280;14965;50.660;13.226;2022-10-16T01:29:52;94785.78;;;12.63;100.00
30110;BME280;14965;50.660;13.226;2022-10-16T01:32:28;94790.56;;;12.63;100.00
30110;BME280;14965;50.660;13.226;2022-10-16T01:35:02;94781.78;;;12.64;100.00
30110;BME280;14965;50.660;13.226;2022-10-16T01:37:37;94783.31;;;12.65;100.00
30110;BME280;14965;50.660;13.226;2022-10-16T01:40:10;94788.44;;;12.67;100.00
30110;BME280;14965;50.660;13.226;2022-10-16T01:42:42;94787.63;;;12.66;100.00
30110;BME280;14965;50.660;13.226;2022-10-16T01:45:14;94793.97;;;12.67;100.00
30110;BME280;14965;50.660;13.226;2022-10-16T01:47:42;94781.66;;;12.68;100.00
30110;BME280;14965;50.660;13.226;2022-10-16T01:50:09;94785.19;;;12.68;100.00
30110;BME280;14965;50.660;13.226;2022-10-16T01:52:40;94787.50;;;12.70;100.00
30110;BME280;14965;50.660;13.226;2022-10-16T01:55:10;94788.25;;;12.70;100.00
30110;BME280;14965;50.660;13.226;2022-10-16T01:57:44;94786.72;;;12.69;100.00
30110;BME280;14965;50.660;13.226;2022-10-16T02:00:14;94783.97;;;12.69;100.00
30110;BME280;14965;50.660;13.226;2022-10-16T02:02:47;94776.41;;;12.70;100.00
30110;BME280;14965;50.660;13.226;2022-10-16T02:05:20;94775.22;;;12.71;100.00
30110;BME280;14965;50.660;13.226;2022-10-16T02:07:48;94790.13;;;12.74;100.00
30110;BME280;14965;50.660;13.226;2022-10-16T02:10:14;94793.25;;;12.76;100.00
30110;BME280;14965;50.660;13.226;2022-10-16T02:12:48;94802.75;;;12.75;100.00
30110;BME280;14965;50.660;13.226;2022-10-16T02:15:15;94798.00;;;12.75;100.00
30110;BME280;14965;50.660;13.226;2022-10-16T02:17:41;94797.22;;;12.75;100.00
30110;BME280;14965;50.660;13.226;2022-10-16T02:20:08;94790.91;;;12.74;100.00
30110;BME280;14965;50.660;13.226;2022-10-16T02:22:38;94783.34;;;12.75;100.00
30110;BME280;14965;50.660;13.226;2022-10-16T02:25:10;94800.78;;;12.75;100.00
30110;BME280;14965;50.660;13.226;2022-10-16T02:27:46;94800.31;;;12.77;100.00
30110;BME280;14965;50.660;13.226;2022-10-16T02:30:22;94799.56;;;12.76;100.00
30110;BME280;14965;50.660;13.226;2022-10-16T02:32:52;94796.00;;;12.76;100.00
30110;BME280;14965;50.660;13.226;2022-10-16T02:35:21;94797.53;;;12.77;100.00
30110;BME280;14965;50.660;13.226;2022-10-16T02:37:50;94804.19;;;12.79;100.00
30110;BME280;14965;50.660;13.226;2022-10-16T02:40:17;94794.19;;;12.82;100.00
30110;BME280;14965;50.660;13.226;2022-10-16T02:42:49;94798.06;;;12.84;100.00
30110;BME280;14965;50.660;13.226;2022-10-16T02:45:15;94791.56;;;12.87;100.00
30110;BME280;14965;50.660;13.226;2022-10-16T02:47:41;94782.81;;;12.89;100.00
30110;BME280;14965;50.660;13.226;2022-10-16T02:50:07;94787.91;;;12.90;100.00
30110;BME280;14965;50.660;13.226;2022-10-16T02:52:34;94787.00;;;12.93;100.00
30110;BME280;14965;50.660;13.226;2022-10-16T02:55:00;94774.25;;;12.96;100.00
30110;BME280;14965;50.660;13.226;2022-10-16T02:57:26;94776.53;;;12.98;100.00
30110;BME280;14965;50.660;13.226;2022-10-16T02:59:53;94778.84;;;12.99;100.00
30110;BME280;14965;50.660;13.226;2022-10-16T03:02:20;94784.38;;;12.99;100.00
30110;BME280;14965;50.660;13.226;2022-10-16T03:04:46;94792.56;;;13.03;100.00
30110;BME280;14965;50.660;13.226;2022-10-16T03:07:12;94797.22;;;13.06;100.00
30110;BME280;14965;50.660;13.226;2022-10-16T03:09:38;94791.66;;;13.06;100.00
30110;BME280;14965;50.660;13.226;2022-10-16T03:12:04;94790.91;;;13.05;100.00
30110;BME280;14965;50.660;13.226;2022-10-16T03:14:30;94792.91;;;13.05;100.00
30110;BME280;14965;50.660;13.226;2022-10-16T03:16:57;94786.59;;;13.04;100.00
30110;BME280;14965;50.660;13.226;2022-10-16T03:19:23;94790.56;;;13.03;100.00
30110;BME280;14965;50.660;13.226;2022-10-16T03:21:49;94789.81;;;13.03;100.00
30110;BME280;14965;50.660;13.226;2022-10-16T03:24:15;94784.72;;;13.01;100.00
30110;BME280;14965;50.660;13.226;2022-10-16T03:26:42;94791.50;;;13.00;100.00
30110;BME280;14965;50.660;13.226;2022-10-16T03:29:08;94798.72;;;12.98;100.00
30110;BME280;14965;50.660;13.226;2022-10-16T03:31:33;94803.16;;;12.95;100.00
30110;BME280;14965;50.660;13.226;2022-10-16T03:34:01;94798.56;;;12.92;100.00
30110;BME280;14965;50.660;13.226;2022-10-16T03:36:27;94797.44;;;12.89;100.00
30110;BME280;14965;50.660;13.226;2022-10-16T03:38:53;94800.34;;;12.86;100.00
30110;BME280;14965;50.660;13.226;2022-10-16T03:41:19;94793.41;;;12.81;100.00
30110;BME280;14965;50.660;13.226;2022-10-16T03:43:45;94804.31;;;12.76;100.00
30110;BME280;14965;50.660;13.226;2022-10-16T03:46:11;94805.69;;;12.71;100.00
30110;BME280;14965;50.660;13.226;2022-10-16T03:48:37;94813.81;;;12.65;100.00
30110;BME280;14965;50.660;13.226;2022-10-16T03:51:04;94804.41;;;12.63;100.00
30110;BME280;14965;50.660;13.226;2022-10-16T03:53:30;94801.78;;;12.59;100.00
30110;BME280;14965;50.660;13.226;2022-10-16T03:55:56;94801.31;;;12.61;100.00
30110;BME280;14965;50.660;13.226;2022-10-16T03:58:22;94817.03;;;12.64;100.00
30110;BME280;14965;50.660;13.226;2022-10-16T04:00:48;94808.25;;;12.65;100.00
30110;BME280;14965;50.660;13.226;2022-10-16T04:03:14;94823.97;;;12.68;100.00
30110;BME280;14965;50.660;13.226;2022-10-16T04:05:40;94828.28;;;12.69;100.00
30110;BME280;14965;50.660;13.226;2022-10-16T04:08:08;94827.41;;;12.73;100.00
30110;BME280;14965;50.660;13.226;2022-10-16T04:10:33;94832.81;;;12.76;100.00
30110;BME280;14965;50.660;13.226;2022-10-16T04:12:59;94828.66;;;12.81;100.00
30110;BME280;14965;50.660;13.226;2022-10-16T04:15:25;94836.09;;;12.84;100.00
30110;BME280;14965;50.660;13.226;2022-10-16T04:17:52;94838.69;;;12.87;100.00
30110;BME280;14965;50.660;13.226;2022-10-16T04:20:18;94849.34;;;12.89;100.00
30110;BME280;14965;50.660;13.226;2022-10-16T04:22:45;94846.09;;;12.90;100.00
30110;BME280;14965;50.660;13.226;2022-10-16T04:25:12;94842.91;;;12.92;100.00
30110;BME280;14965;50.660;13.226;2022-10-16T04:27:38;94839.66;;;12.93;100.00
30110;BME280;14965;50.660;13.226;2022-10-16T04:30:06;94835.53;;;12.98;100.00
30110;BME280;14965;50.660;13.226;2022-10-16T04:32:32;94832.28;;;13.00;100.00
30110;BME280;14965;50.660;13.226;2022-10-16T04:34:58;94826.59;;;13.03;100.00
30110;BME280;14965;50.660;13.226;2022-10-16T04:37:25;94823.84;;;13.03;100.00
30110;BME280;14965;50.660;13.226;2022-10-16T04:39:51;94822.31;;;13.02;100.00
30110;BME280;14965;50.660;13.226;2022-10-16T04:42:19;94825.84;;;13.03;100.00
30110;BME280;14965;50.660;13.226;2022-10-16T04:44:45;94837.41;;;13.01;100.00
30110;BME280;14965;50.660;13.226;2022-10-16T04:47:11;94846.94;;;13.00;100.00
30110;BME280;14965;50.660;13.226;2022-10-16T04:49:37;94840.59;;;13.00;100.00
30110;BME280;14965;50.660;13.226;2022-10-16T04:52:03;94829.22;;;12.98;100.00
30110;BME280;14965;50.660;13.226;2022-10-16T04:54:29;94829.69;;;12.96;100.00
30110;BME280;14965;50.660;13.226;2022-10-16T04:56:55;94830.13;;;12.94;100.00
30110;BME280;14965;50.660;13.226;2022-10-16T04:59:23;94830.88;;;12.95;100.00
30110;BME280;14965;50.660;13.226;2022-10-16T05:01:49;94837.19;;;12.95;100.00
30110;BME280;14965;50.660;13.226;2022-10-16T05:04:15;94828.88;;;12.95;100.00
30110;BME280;14965;50.660;13.226;2022-10-16T05:06:42;94828.13;;;12.95;100.00
30110;BME280;14965;50.660;13.226;2022-10-16T05:09:09;94836.44;;;12.95;100.00
30110;BME280;14965;50.660;13.226;2022-10-16T05:11:35;94830.88;;;12.95;100.00
30110;BME280;14965;50.660;13.226;2022-10-16T05:14:01;94837.66;;;12.94;100.00
30110;BME280;14965;50.660;13.226;2022-10-16T05:16:29;94841.97;;;12.95;100.00
30110;BME280;14965;50.660;13.226;2022-10-16T05:18:55;94858.59;;;12.95;100.00
30110;BME280;14965;50.660;13.226;2022-10-16T05:21:21;94855.84;;;12.95;100.00
30110;BME280;14965;50.660;13.226;2022-10-16T05:23:47;94854.28;;;12.94;100.00
30110;BME280;14965;50.660;13.226;2022-10-16T05:26:14;94849.22;;;12.92;100.00
30110;BME280;14965;50.660;13.226;2022-10-16T05:28:39;94854.75;;;12.92;100.00
30110;BME280;14965;50.660;13.226;2022-10-16T05:31:06;94867.06;;;12.91;100.00
30110;BME280;14965;50.660;13.226;2022-10-16T05:33:34;94871.38;;;12.92;100.00
30110;BME280;14965;50.660;13.226;2022-10-16T05:36:02;94865.06;;;12.92;100.00
30110;BME280;14965;50.660;13.226;2022-10-16T05:38:28;94876.94;;;12.92;100.00
30110;BME280;14965;50.660;13.226;2022-10-16T05:40:54;94881.25;;;12.93;100.00
30110;BME280;14965;50.660;13.226;2022-10-16T05:43:20;94884.78;;;12.94;100.00
30110;BME280;14965;50.660;13.226;2022-10-16T05:45:54;94883.88;;;12.97;100.00
30110;BME280;14965;50.660;13.226;2022-10-16T05:48:20;94892.50;;;12.99;100.00
30110;BME280;14965;50.660;13.226;2022-10-16T05:50:47;94886.19;;;12.99;100.00
30110;BME280;14965;50.660;13.226;2022-10-16T05:53:13;94887.28;;;13.01;100.00
30110;BME280;14965;50.660;13.226;2022-10-16T05:55:39;94894.38;;;13.02;100.00
30110;BME280;14965;50.660;13.226;2022-10-16T05:58:05;94909.00;;;13.03;100.00
30110;BME280;14965;50.660;13.226;2022-10-16T06:00:31;94916.56;;;13.02;100.00
30110;BME280;14965;50.660;13.226;2022-10-16T06:02:57;94918.88;;;13.04;100.00
30110;BME280;14965;50.660;13.226;2022-10-16T06:05:23;94918.56;;;13.02;100.00
30110;BME280;14965;50.660;13.226;2022-10-16T06:07:50;94924.41;;;13.04;100.00
30110;BME280;14965;50.660;13.226;2022-10-16T06:10:16;94926.28;;;13.07;100.00
30110;BME280;14965;50.660;13.226;2022-10-16T06:12:42;94916.59;;;13.11;100.00
30110;BME280;14965;50.660;13.226;2022-10-16T06:15:08;94927.56;;;13.15;100.00
30110;BME280;14965;50.660;13.226;2022-10-16T06:17:34;94926.97;;;13.20;100.00
30110;BME280;14965;50.660;13.226;2022-10-16T06:20:00;94924.09;;;13.24;100.00
30110;BME280;14965;50.660;13.226;2022-10-16T06:22:26;94923.50;;;13.29;100.00
30110;BME280;14965;50.660;13.226;2022-10-16T06:24:54;94929.25;;;13.34;100.00
30110;BME280;14965;50.660;13.226;2022-10-16T06:27:19;94935.09;;;13.36;100.00
30110;BME280;14965;50.660;13.226;2022-10-16T06:29:45;94931.41;;;13.39;99.75
30110;BME280;14965;50.660;13.226;2022-10-16T06:32:11;94930.81;;;13.44;99.55
30110;BME280;14965;50.660;13.226;2022-10-16T06:34:37;94929.00;;;13.51;99.22
30110;BME280;14965;50.660;13.226;2022-10-16T06:37:03;94929.19;;;13.56;98.89
30110;BME280;14965;50.660;13.226;2022-10-16T06:39:29;94934.59;;;13.60;98.52
30110;BME280;14965;50.660;13.226;2022-10-16T06:41:56;94942.31;;;13.65;98.58
30110;BME280;14965;50.660;13.226;2022-10-16T06:44:22;94951.59;;;13.71;98.12
30110;BME280;14965;50.660;13.226;2022-10-16T06:46:48;94955.78;;;13.76;97.91
30110;BME280;14965;50.660;13.226;2022-10-16T06:49:14;94962.28;;;13.82;97.73
30110;BME280;14965;50.660;13.226;2022-10-16T06:51:40;94964.75;;;13.89;97.76
30110;BME280;14965;50.660;13.226;2022-10-16T06:54:06;94969.25;;;13.95;97.44
30110;BME280;14965;50.660;13.226;2022-10-16T06:56:33;94970.50;;;14.04;97.27
30110;BME280;14965;50.660;13.226;2022-10-16T06:59:02;94953.41;;;14.14;96.80
30110;BME280;14965;50.660;13.226;2022-10-16T07:01:28;94969.19;;;14.27;96.63
30110;BME280;14965;50.660;13.226;2022-10-16T07:03:54;94966.88;;;14.34;96.03
30110;BME280;14965;50.660;13.226;2022-10-16T07:06:23;94976.47;;;14.42;95.61
30110;BME280;14965;50.660;13.226;2022-10-16T07:08:50;94979.88;;;14.47;95.42
30110;BME280;14965;50.660;13.226;2022-10-16T07:11:19;94976.63;;;14.48;95.69
30110;BME280;14965;50.660;13.226;2022-10-16T07:13:46;94972.97;;;14.51;95.19
30110;BME280;14965;50.660;13.226;2022-10-16T07:16:17;94978.38;;;14.55;94.94
30110;BME280;14965;50.660;13.226;2022-10-16T07:18:44;94982.84;;;14.61;95.06
30110;BME280;14965;50.660;13.226;2022-10-16T07:21:13;94978.03;;;14.71;94.79
30110;BME280;14965;50.660;13.226;2022-10-16T07:23:39;94975.72;;;14.79;94.31
30110;BME280;14965;50.660;13.226;2022-10-16T07:26:06;94981.91;;;14.83;94.29
30110;BME280;14965;50.660;13.226;2022-10-16T07:28:33;94985.16;;;14.90;94.10
30110;BME280;14965;50.660;13.226;2022-10-16T07:31:01;94990.84;;;14.96;94.00
30110;BME280;14965;50.660;13.226;2022-10-16T07:33:29;94994.88;;;15.04;94.04
30110;BME280;14965;50.660;13.226;2022-10-16T07:35:55;95009.56;;;15.14;93.87
30110;BME280;14965;50.660;13.226;2022-10-16T07:38:22;95018.38;;;15.22;93.41
30110;BME280;14965;50.660;13.226;2022-10-16T07:40:48;95008.00;;;15.22;93.01
30110;BME280;14965;50.660;13.226;2022-10-16T07:43:14;95011.84;;;15.25;92.84
30110;BME280;14965;50.660;13.226;2022-10-16T07:45:47;95012.63;;;15.25;93.04
30110;BME280;14965;50.660;13.226;2022-10-16T07:48:13;95009.69;;;15.29;93.06
30110;BME280;14965;50.660;13.226;2022-10-16T07:50:40;95025.13;;;15.30;93.03
30110;BME280;14965;50.660;13.226;2022-10-16T07:53:06;95029.16;;;15.29;93.18
30110;BME280;14965;50.660;13.226;2022-10-16T07:55:32;95024.53;;;15.35;93.39
30110;BME280;14965;50.660;13.226;2022-10-16T07:57:58;95019.44;;;15.42;92.95
30110;BME280;14965;50.660;13.226;2022-10-16T08:00:24;95018.78;;;15.48;92.74
30110;BME280;14965;50.660;13.226;2022-10-16T08:02:50;95014.75;;;15.49;92.21
30110;BME280;14965;50.660;13.226;2022-10-16T08:05:16;95017.06;;;15.50;92.36
30110;BME280;14965;50.660;13.226;2022-10-16T08:07:48;95013.69;;;15.55;92.19
30110;BME280;14965;50.660;13.226;2022-10-16T08:10:17;95019.84;;;15.68;91.87
30110;BME280;14965;50.660;13.226;2022-10-16T08:12:44;95007.75;;;15.81;90.95
30110;BME280;14965;50.660;13.226;2022-10-16T08:15:10;95005.88;;;15.87;90.33
30110;BME280;14965;50.660;13.226;2022-10-16T08:17:36;95006.31;;;15.94;89.67
30110;BME280;14965;50.660;13.226;2022-10-16T08:20:02;95012.75;;;16.01;89.73
30110;BME280;14965;50.660;13.226;2022-10-16T08:22:29;95019.13;;;16.01;89.29
30110;BME280;14965;50.660;13.226;2022-10-16T08:24:56;95020.34;;;16.00;89.39
30110;BME280;14965;50.660;13.226;2022-10-16T08:27:22;95026.19;;;16.11;89.18
30110;BME280;14965;50.660;13.226;2022-10-16T08:29:49;95023.34;;;16.21;88.83
30110;BME280;14965;50.660;13.226;2022-10-16T08:32:15;95031.66;;;16.39;87.91
30110;BME280;14965;50.660;13.226;2022-10-16T08:34:43;95035.03;;;16.43;87.10
30110;BME280;14965;50.660;13.226;2022-10-16T08:37:09;95035.81;;;16.43;87.73
30110;BME280;14965;50.660;13.226;2022-10-16T08:39:34;95036.84;;;16.46;87.24
30110;BME280;14965;50.660;13.226;2022-10-16T08:42:38;95035.16;;;16.49;86.32
30110;BME280;14965;50.660;13.226;2022-10-16T08:45:30;95033.22;;;16.64;86.16
30110;BME280;14965;50.660;13.226;2022-10-16T08:48:16;95052.06;;;16.69;85.05
30110;BME280;14965;50.660;13.226;2022-10-16T08:50:43;95051.56;;;16.80;85.21
30110;BME280;14965;50.660;13.226;2022-10-16T08:53:18;95047.66;;;16.86;84.90
30110;BME280;14965;50.660;13.226;2022-10-16T08:55:51;95060.75;;;16.95;84.10
30110;BME280;14965;50.660;13.226;2022-10-16T08:58:21;95068.22;;;17.13;84.06
30110;BME280;14965;50.660;13.226;2022-10-16T09:00:50;95066.53;;;17.30;83.20
30110;BME280;14965;50.660;13.226;2022-10-16T09:03:47;95049.81;;;17.45;82.87
30110;BME280;14965;50.660;13.226;2022-10-16T09:06:31;95051.84;;;17.59;81.54
30110;BME280;14965;50.660;13.226;2022-10-16T09:09:23;95053.41;;;17.60;80.35
30110;BME280;14965;50.660;13.226;2022-10-16T09:11:58;95050.69;;;17.66;80.06
30110;BME280;14965;50.660;13.226;2022-10-16T09:14:42;95059.78;;;17.76;80.14
30110;BME280;14965;50.660;13.226;2022-10-16T09:17:34;95068.72;;;17.65;78.77
30110;BME280;14965;50.660;13.226;2022-10-16T09:20:19;95057.16;;;17.57;79.51
30110;BME280;14965;50.660;13.226;2022-10-16T09:22:52;95065.78;;;17.59;79.80
30110;BME280;14965;50.660;13.226;2022-10-16T09:25:21;95066.06;;;17.32;79.55
30110;BME280;14965;50.660;13.226;2022-10-16T09:27:52;95061.31;;;17.23;81.02
30110;BME280;14965;50.660;13.226;2022-10-16T09:30:21;95066.13;;;17.23;80.97
30110;BME280;14965;50.660;13.226;2022-10-16T09:32:51;95069.38;;;17.21;80.50
30110;BME280;14965;50.660;13.226;2022-10-16T09:35:21;95067.25;;;17.16;81.13
30110;BME280;14965;50.660;13.226;2022-10-16T09:37:50;95071.66;;;17.08;80.32
30110;BME280;14965;50.660;13.226;2022-10-16T09:40:26;95067.88;;;16.96;81.82
30110;BME280;14965;50.660;13.226;2022-10-16T09:43:10;95073.03;;;16.88;81.83
30110;BME280;14965;50.660;13.226;2022-10-16T09:45:41;95073.28;;;16.76;82.03
30110;BME280;14965;50.660;13.226;2022-10-16T09:48:12;95082.44;;;16.76;82.39
30110;BME280;14965;50.660;13.226;2022-10-16T09:50:56;95080.03;;;16.84;82.32
30110;BME280;14965;50.660;13.226;2022-10-16T09:53:22;95088.38;;;16.93;82.12
30110;BME280;14965;50.660;13.226;2022-10-16T09:55:49;95084.75;;;17.02;81.43
30110;BME280;14965;50.660;13.226;2022-10-16T09:58:15;95097.53;;;16.84;80.73
30110;BME280;14965;50.660;13.226;2022-10-16T10:00:50;95085.50;;;16.78;81.25
30110;BME280;14965;50.660;13.226;2022-10-16T10:03:35;95093.38;;;16.80;82.11
30110;BME280;14965;50.660;13.226;2022-10-16T10:06:16;95097.47;;;16.69;81.82
30110;BME280;14965;50.660;13.226;2022-10-16T10:08:58;95110.16;;;16.71;82.22
30110;BME280;14965;50.660;13.226;2022-10-16T10:11:48;95104.09;;;16.81;83.34
30110;BME280;14965;50.660;13.226;2022-10-16T10:14:25;95111.47;;;16.93;82.68
30110;BME280;14965;50.660;13.226;2022-10-16T10:17:21;95116.38;;;16.99;81.02
30110;BME280;14965;50.660;13.226;2022-10-16T10:19:51;95125.63;;;17.05;80.91
30110;BME280;14965;50.660;13.226;2022-10-16T10:22:29;95127.06;;;17.24;81.39
30110;BME280;14965;50.660;13.226;2022-10-16T10:25:19;95125.09;;;17.39;80.70
30110;BME280;14965;50.660;13.226;2022-10-16T10:28:17;95122.31;;;17.39;79.44
30110;BME280;14965;50.660;13.226;2022-10-16T10:30:55;95136.38;;;17.45;79.59
30110;BME280;14965;50.660;13.226;2022-10-16T10:33:34;95131.19;;;17.53;78.79
30110;BME280;14965;50.660;13.226;2022-10-16T10:36:19;95138.03;;;17.66;79.33
30110;BME280;14965;50.660;13.226;2022-10-16T10:38:51;95145.16;;;17.77;78.90
30110;BME280;14965;50.660;13.226;2022-10-16T10:44:57;95145.66;;;17.66;79.09
30110;BME280;14965;50.660;13.226;2022-10-16T10:47:38;95157.00;;;17.62;78.54
30110;BME280;14965;50.660;13.226;2022-10-16T10:50:20;95157.56;;;17.52;78.58
30110;BME280;14965;50.660;13.226;2022-10-16T10:52:59;95154.88;;;17.57;79.26
30110;BME280;14965;50.660;13.226;2022-10-16T10:55:39;95146.72;;;17.68;79.37
30110;BME280;14965;50.660;13.226;2022-10-16T10:58:50;95140.47;;;17.74;78.75
30110;BME280;14965;50.660;13.226;2022-10-16T11:01:32;95130.94;;;17.65;78.39
30110;BME280;14965;50.660;13.226;2022-10-16T11:04:45;95132.28;;;17.70;77.56
30110;BME280;14965;50.660;13.226;2022-10-16T11:07:23;95128.53;;;17.73;77.68
30110;BME280;14965;50.660;13.226;2022-10-16T11:09:56;95126.75;;;17.85;77.49
30110;BME280;14965;50.660;13.226;2022-10-16T11:12:30;95126.47;;;17.98;77.55
30110;BME280;14965;50.660;13.226;2022-10-16T11:15:07;95136.56;;;18.10;77.35
30110;BME280;14965;50.660;13.226;2022-10-16T11:17:41;95127.16;;;18.07;76.45
30110;BME280;14965;50.660;13.226;2022-10-16T11:20:16;95125.38;;;18.10;77.57
30110;BME280;14965;50.660;13.226;2022-10-16T11:22:50;95126.78;;;18.14;76.85
30110;BME280;14965;50.660;13.226;2022-10-16T11:25:21;95124.13;;;18.26;76.98
30110;BME280;14965;50.660;13.226;2022-10-16T11:27:55;95121.53;;;18.37;76.53
30110;BME280;14965;50.660;13.226;2022-10-16T11:30:26;95123.19;;;18.44;75.55
30110;BME280;14965;50.660;13.226;2022-10-16T11:33:10;95126.06;;;18.34;75.88
30110;BME280;14965;50.660;13.226;2022-10-16T11:35:46;95129.34;;;18.33;76.05
30110;BME280;14965;50.660;13.226;2022-10-16T11:38:26;95131.75;;;18.40;76.96
30110;BME280;14965;50.660;13.226;2022-10-16T11:41:00;95129.44;;;18.53;76.88
30110;BME280;14965;50.660;13.226;2022-10-16T11:43:38;95134.63;;;18.60;75.77
30110;BME280;14965;50.660;13.226;2022-10-16T11:46:13;95134.63;;;18.75;75.59
30110;BME280;14965;50.660;13.226;2022-10-16T11:48:48;95138.75;;;18.80;74.70
30110;BME280;14965;50.660;13.226;2022-10-16T11:51:25;95135.72;;;18.98;74.20
30110;BME280;14965;50.660;13.226;2022-10-16T11:54:03;95135.53;;;19.22;74.84
30110;BME280;14965;50.660;13.226;2022-10-16T11:56:32;95129.09;;;19.36;72.11
30110;BME280;14965;50.660;13.226;2022-10-16T11:59:06;95131.34;;;19.32;71.78
30110;BME280;14965;50.660;13.226;2022-10-16T12:01:41;95130.44;;;19.41;72.20
30110;BME280;14965;50.660;13.226;2022-10-16T12:04:21;95127.00;;;19.31;70.12
30110;BME280;14965;50.660;13.226;2022-10-16T12:06:56;95136.53;;;19.19;71.26
30110;BME280;14965;50.660;13.226;2022-10-16T12:09:29;95151.28;;;19.20;71.28
30110;BME280;14965;50.660;13.226;2022-10-16T12:11:56;95151.75;;;19.18;70.35
30110;BME280;14965;50.660;13.226;2022-10-16T12:14:38;95151.28;;;19.20;69.77
30110;BME280;14965;50.660;13.226;2022-10-16T12:17:26;95165.75;;;19.18;70.09
30110;BME280;14965;50.660;13.226;2022-10-16T12:20:02;95160.91;;;19.19;70.21
30110;BME280;14965;50.660;13.226;2022-10-16T12:22:48;95165.69;;;19.12;70.84
30110;BME280;14965;50.660;13.226;2022-10-16T12:25:24;95157.31;;;18.98;70.27
30110;BME280;14965;50.660;13.226;2022-10-16T12:28:00;95158.06;;;18.78;70.70
30110;BME280;14965;50.660;13.226;2022-10-16T12:30:30;95171.56;;;18.79;71.11
30110;BME280;14965;50.660;13.226;2022-10-16T12:32:58;95166.59;;;18.89;71.42
30110;BME280;14965;50.660;13.226;2022-10-16T12:35:28;95160.50;;;19.05;70.89
30110;BME280;14965;50.660;13.226;2022-10-16T12:38:15;95164.16;;;19.11;69.60
30110;BME280;14965;50.660;13.226;2022-10-16T12:40:44;95174.22;;;19.03;69.45
30110;BME280;14965;50.660;13.226;2022-10-16T12:43:35;95179.06;;;19.03;70.36
30110;BME280;14965;50.660;13.226;2022-10-16T12:46:19;95178.94;;;18.97;70.53
30110;BME280;14965;50.660;13.226;2022-10-16T12:48:47;95180.59;;;18.89;70.23
30110;BME280;14965;50.660;13.226;2022-10-16T12:51:25;95176.19;;;18.82;70.80
30110;BME280;14965;50.660;13.226;2022-10-16T12:54:02;95179.97;;;18.64;70.97
30110;BME280;14965;50.660;13.226;2022-10-16T12:56:43;95185.94;;;18.57;71.65
30110;BME280;14965;50.660;13.226;2022-10-16T12:59:26;95182.56;;;18.38;71.92
30110;BME280;14965;50.660;13.226;2022-10-16T13:02:34;95196.28;;;18.36;71.92
30110;BME280;14965;50.660;13.226;2022-10-16T13:05:31;95191.34;;;18.46;72.56
30110;BME280;14965;50.660;13.226;2022-10-16T13:08:18;95197.41;;;18.59;72.06
30110;BME280;14965;50.660;13.226;2022-10-16T13:11:00;95195.09;;;18.58;70.92